Time;durP1;ratioP1;P1;durP2;ratioP2;P2;SDS_P1;SDS_P2;PMS_P1;PMS_P2;Temp;Humidity;BMP_temperature;BMP_pressure;BME280_temperature;BME280_humidity;BME280_pressure;Samples;Min_cycle;Max_cycle;Signal;HPM_P1;HPM_P2
2022/06/11 00:00:19;;;;;;;9.77;3.13;;;18.10;81.80;;;;;;5082546;28;20502;-85
2022/06/11 00:02:45;;;;;;;8.13;3.10;;;18.00;81.90;;;;;;5074635;28;20032;-85
2022/06/11 00:05:11;;;;;;;8.07;3.28;;;18.10;82.10;;;;;;5071833;28;20046;-85
2022/06/11 00:07:42;;;;;;;7.18;3.20;;;18.00;82.10;;;;;;5073988;28;20137;-85
2022/06/11 00:10:10;;;;;;;5.72;3.08;;;18.10;81.90;;;;;;5074639;28;20442;-85
2022/06/11 00:12:37;;;;;;;6.22;3.22;;;18.00;81.80;;;;;;5085620;28;20071;-85
2022/06/11 00:15:04;;;;;;;5.88;2.92;;;18.00;81.70;;;;;;5089864;28;20395;-86
2022/06/11 00:17:30;;;;;;;8.35;3.20;;;18.10;81.50;;;;;;5086941;28;20043;-85
2022/06/11 00:20:06;;;;;;;12.23;3.40;;;18.10;81.60;;;;;;5090351;28;20024;-85
2022/06/11 00:22:31;;;;;;;8.75;3.25;;;18.10;81.50;;;;;;5088995;28;20497;-85
2022/06/11 00:24:59;;;;;;;6.70;3.05;;;18.10;81.10;;;;;;5084234;28;20032;-86
2022/06/11 00:27:25;;;;;;;6.70;3.25;;;18.20;81.30;;;;;;5087482;28;20027;-85
2022/06/11 00:29:52;;;;;;;7.05;3.80;;;18.20;81.20;;;;;;5085071;28;20483;-87
2022/06/11 00:32:17;;;;;;;7.80;3.75;;;18.20;81.40;;;;;;5091194;28;20056;-87
2022/06/11 00:34:46;;;;;;;7.60;3.83;;;18.30;81.60;;;;;;5090955;28;20836;-86
2022/06/11 00:37:17;;;;;;;8.90;4.22;;;18.10;82.80;;;;;;5088924;28;20035;-86
2022/06/11 00:39:44;;;;;;;6.65;4.00;;;18.20;82.80;;;;;;5079396;28;20056;-86
2022/06/11 00:42:19;;;;;;;8.48;4.18;;;18.10;83.70;;;;;;5076601;28;20027;-85
2022/06/11 00:44:44;;;;;;;6.55;3.85;;;17.90;84.20;;;;;;5085542;28;20053;-85
2022/06/11 00:47:21;;;;;;;7.95;4.10;;;17.80;85.00;;;;;;5090465;28;20055;-85
2022/06/11 00:49:58;;;;;;;7.13;4.00;;;17.70;85.30;;;;;;5088571;28;20686;-85
2022/06/11 00:52:38;;;;;;;8.07;4.20;;;17.60;85.70;;;;;;5082233;28;20404;-85
2022/06/11 00:55:10;;;;;;;8.05;4.72;;;17.50;86.20;;;;;;5081112;28;20032;-85
2022/06/11 00:57:41;;;;;;;8.50;4.72;;;17.50;86.60;;;;;;5087138;28;20027;-85
2022/06/11 01:00:22;;;;;;;8.63;4.60;;;17.50;87.00;;;;;;5089682;28;20063;-85
2022/06/11 01:02:48;;;;;;;6.93;5.05;;;17.50;86.80;;;;;;5090404;28;20029;-85
2022/06/11 01:05:22;;;;;;;8.25;4.82;;;17.50;87.40;;;;;;5087902;28;20083;-85
2022/06/11 01:08:14;;;;;;;9.05;4.63;;;17.40;87.60;;;;;;5085938;28;20598;-85
2022/06/11 01:10:58;;;;;;;8.80;4.88;;;17.40;87.40;;;;;;5087990;28;20440;-84
2022/06/11 01:13:34;;;;;;;9.15;4.22;;;17.40;87.70;;;;;;5108435;27;20084;-84
2022/06/11 01:16:14;;;;;;;10.32;4.47;;;17.30;87.90;;;;;;5109008;28;20028;-84
2022/06/11 01:18:48;;;;;;;7.32;4.20;;;17.30;87.60;;;;;;5089020;27;20034;-84
2022/06/11 01:21:37;;;;;;;8.93;4.13;;;17.40;87.90;;;;;;5104925;28;20517;-85
2022/06/11 01:24:24;;;;;;;11.07;4.35;;;17.40;87.70;;;;;;5089492;28;20028;-85
2022/06/11 01:27:28;;;;;;;7.30;3.90;;;17.40;87.80;;;;;;5082225;28;20032;-85
2022/06/11 01:30:04;;;;;;;10.20;4.53;;;17.40;88.00;;;;;;5074120;27;20039;-85
2022/06/11 01:32:35;;;;;;;12.50;4.35;;;17.40;88.00;;;;;;5108742;28;20031;-85
2022/06/11 01:36:02;;;;;;;9.07;4.38;;;17.40;87.60;;;;;;5089577;28;20076;-85
2022/06/11 01:38:37;;;;;;;8.38;4.38;;;17.40;87.50;;;;;;4975236;28;20057;-85
2022/06/11 01:41:18;;;;;;;7.10;4.03;;;17.40;87.50;;;;;;5088891;28;20098;-85
2022/06/11 01:43:46;;;;;;;8.27;4.15;;;17.40;87.30;;;;;;5090086;28;20031;-85
2022/06/11 01:46:19;;;;;;;10.27;4.18;;;17.40;87.00;;;;;;5092113;28;20114;-85
2022/06/11 01:48:52;;;;;;;7.25;3.97;;;17.40;87.00;;;;;;5109558;28;20138;-85
2022/06/11 01:51:40;;;;;;;6.15;3.90;;;17.40;86.90;;;;;;5099677;28;20050;-84
2022/06/11 01:54:23;;;;;;;7.43;3.90;;;17.40;86.60;;;;;;5099834;28;20117;-85
2022/06/11 01:57:06;;;;;;;10.13;4.20;;;17.50;86.40;;;;;;5112253;27;20036;-85
2022/06/11 01:59:46;;;;;;;8.07;4.18;;;17.50;86.10;;;;;;5092670;28;20450;-85
2022/06/11 02:02:48;;;;;;;8.10;4.10;;;17.50;85.90;;;;;;5087248;28;20030;-85
2022/06/11 02:05:35;;;;;;;7.68;3.90;;;17.50;85.70;;;;;;5092974;28;20034;-84
2022/06/11 02:08:15;;;;;;;8.30;3.90;;;17.50;85.90;;;;;;5087702;28;20036;-84
2022/06/11 02:11:03;;;;;;;7.10;3.40;;;17.50;85.50;;;;;;5087191;28;20027;-85
2022/06/11 02:13:44;;;;;;;7.97;3.85;;;17.60;85.00;;;;;;5089463;28;20067;-85
2022/06/11 02:17:00;;;;;;;10.23;3.88;;;17.60;85.00;;;;;;5089409;28;20031;-85
2022/06/11 02:19:33;;;;;;;10.43;3.60;;;17.70;84.90;;;;;;5010806;28;20049;-85
2022/06/11 02:22:06;;;;;;;7.30;3.60;;;17.70;84.90;;;;;;5086737;28;20070;-85
2022/06/11 02:24:38;;;;;;;6.00;3.15;;;17.70;84.90;;;;;;5091533;28;20463;-84
2022/06/11 02:27:14;;;;;;;6.88;3.65;;;17.70;84.80;;;;;;5109522;27;20032;-84
2022/06/11 02:29:40;;;;;;;6.20;3.25;;;17.70;84.80;;;;;;5088248;28;20023;-84
2022/06/11 02:32:10;;;;;;;5.95;3.35;;;17.70;84.70;;;;;;5108087;27;20042;-84
2022/06/11 02:34:58;;;;;;;6.73;3.37;;;17.70;84.80;;;;;;5112101;28;20036;-85
2022/06/11 02:37:35;;;;;;;6.63;3.83;;;17.70;84.60;;;;;;5090245;28;20027;-84
2022/06/11 02:40:08;;;;;;;6.00;3.38;;;17.70;84.70;;;;;;5112767;28;20483;-84
2022/06/11 02:42:36;;;;;;;7.50;3.15;;;17.70;84.80;;;;;;5093153;28;20026;-85
2022/06/11 02:45:01;;;;;;;6.82;3.22;;;17.70;84.60;;;;;;5092161;28;20028;-84
2022/06/11 02:47:27;;;;;;;6.40;3.38;;;17.70;84.60;;;;;;5111525;28;20035;-85
2022/06/11 02:49:52;;;;;;;7.47;2.97;;;17.70;84.50;;;;;;5106444;28;20374;-85
2022/06/11 02:52:22;;;;;;;6.65;3.38;;;17.70;84.50;;;;;;5091495;28;20486;-85
2022/06/11 02:54:54;;;;;;;8.05;3.70;;;17.70;84.30;;;;;;5095008;28;20395;-85
2022/06/11 02:57:26;;;;;;;7.53;3.10;;;17.70;84.30;;;;;;5092410;28;20028;-84
2022/06/11 02:59:52;;;;;;;4.57;2.63;;;17.80;84.20;;;;;;5087237;28;20055;-84
2022/06/11 03:02:20;;;;;;;8.05;3.28;;;17.80;84.10;;;;;;5096200;28;20048;-84
2022/06/11 03:04:50;;;;;;;7.78;3.30;;;17.80;84.10;;;;;;5111162;28;20031;-85
2022/06/11 03:07:16;;;;;;;6.82;3.45;;;17.80;84.10;;;;;;5089439;28;20509;-85
2022/06/11 03:09:43;;;;;;;8.48;3.45;;;17.80;84.00;;;;;;5108155;27;20072;-85
2022/06/11 03:12:10;;;;;;;7.25;3.17;;;17.70;84.10;;;;;;5091870;28;20043;-85
2022/06/11 03:14:37;;;;;;;8.57;3.20;;;17.70;84.10;;;;;;5103798;28;20038;-85
2022/06/11 03:17:03;;;;;;;6.22;2.95;;;17.70;84.40;;;;;;5088350;28;20073;-84
2022/06/11 03:19:29;;;;;;;5.40;2.85;;;17.70;84.40;;;;;;5090480;28;20043;-84
2022/06/11 03:21:56;;;;;;;10.60;3.45;;;17.70;84.70;;;;;;5089165;28;20028;-83
2022/06/11 03:24:23;;;;;;;6.22;3.33;;;17.60;84.80;;;;;;5083420;28;20122;-83
2022/06/11 03:26:50;;;;;;;10.15;3.08;;;17.60;84.80;;;;;;5088044;28;20386;-84
2022/06/11 03:29:16;;;;;;;7.65;3.20;;;17.60;84.70;;;;;;5111166;27;20162;-84
2022/06/11 03:31:43;;;;;;;5.63;3.05;;;17.60;84.90;;;;;;5085395;28;20028;-85
2022/06/11 03:34:09;;;;;;;5.63;3.10;;;17.60;85.10;;;;;;5092528;28;20028;-85
2022/06/11 03:36:35;;;;;;;9.52;3.42;;;17.60;84.90;;;;;;5095038;28;20023;-85
2022/06/11 03:39:01;;;;;;;8.32;3.40;;;17.60;84.90;;;;;;5100152;28;20050;-84
2022/06/11 03:41:27;;;;;;;5.97;3.22;;;17.60;85.20;;;;;;5085297;28;20031;-84
2022/06/11 03:43:53;;;;;;;8.63;3.40;;;17.60;85.20;;;;;;5092153;28;20027;-84
2022/06/11 03:46:19;;;;;;;9.50;3.53;;;17.60;85.20;;;;;;5088694;28;20076;-84
2022/06/11 03:48:46;;;;;;;5.10;3.03;;;17.60;85.30;;;;;;5110333;28;20031;-84
2022/06/11 03:51:12;;;;;;;8.38;3.67;;;17.60;85.10;;;;;;5106356;28;20483;-84
2022/06/11 03:53:41;;;;;;;8.45;3.08;;;17.60;85.30;;;;;;5109590;27;20031;-84
2022/06/11 03:56:08;;;;;;;9.80;3.50;;;17.60;85.20;;;;;;5108107;28;20104;-84
2022/06/11 03:58:34;;;;;;;7.22;3.30;;;17.50;85.70;;;;;;5109262;28;20379;-84
2022/06/11 04:01:16;;;;;;;7.93;3.75;;;17.40;86.10;;;;;;5110754;28;20077;-84
2022/06/11 04:03:52;;;;;;;;;;;17.40;86.20;;;;;;5094452;28;20054;-84
2022/06/11 04:06:22;;;;;;;6.65;3.25;;;17.30;86.20;;;;;;5089478;28;20017;-84
2022/06/11 04:08:48;;;;;;;8.52;3.03;;;17.30;86.40;;;;;;5108362;27;20034;-84
2022/06/11 04:11:14;;;;;;;10.68;4.03;;;17.10;86.70;;;;;;5103650;28;20526;-84
2022/06/11 04:13:41;;;;;;;7.35;3.60;;;17.10;87.10;;;;;;5090510;28;20557;-84
2022/06/11 04:16:16;;;;;;;6.93;3.50;;;17.10;87.10;;;;;;5103866;28;20036;-84
2022/06/11 04:18:48;;;;;;;8.02;3.80;;;17.10;87.20;;;;;;5089287;27;20027;-84
2022/06/11 04:21:15;;;;;;;7.05;3.70;;;17.10;87.60;;;;;;5096749;27;20038;-84
2022/06/11 04:23:45;;;;;;;8.13;3.53;;;17.00;87.70;;;;;;5087756;28;20106;-84
2022/06/11 04:26:14;;;;;;;8.10;4.57;;;17.10;87.70;;;;;;5086216;28;20059;-84
2022/06/11 04:28:40;;;;;;;6.88;4.15;;;17.10;87.90;;;;;;5086240;28;20072;-84
2022/06/11 04:31:08;;;;;;;6.15;4.00;;;17.10;87.80;;;;;;5091008;27;20027;-84
2022/06/11 04:33:34;;;;;;;7.78;4.03;;;17.30;87.40;;;;;;5108490;28;20045;-84
2022/06/11 04:36:01;;;;;;;7.63;4.15;;;17.30;87.40;;;;;;5111220;27;20031;-84
2022/06/11 04:38:26;;;;;;;8.40;4.20;;;17.40;87.40;;;;;;5090939;28;20386;-84
2022/06/11 04:40:52;;;;;;;9.75;4.63;;;17.40;87.20;;;;;;5107741;27;20031;-84
2022/06/11 04:43:17;;;;;;;7.45;4.40;;;17.50;87.20;;;;;;5109825;27;20546;-84
2022/06/11 04:45:43;;;;;;;8.80;4.55;;;17.50;86.90;;;;;;5108396;28;20055;-84
2022/06/11 04:48:09;;;;;;;8.93;4.05;;;17.50;87.00;;;;;;5089646;28;20165;-84
2022/06/11 04:50:36;;;;;;;6.53;3.92;;;17.50;87.00;;;;;;5108130;28;20027;-84
2022/06/11 04:53:02;;;;;;;8.15;4.38;;;17.60;87.10;;;;;;5090864;28;20034;-84
2022/06/11 04:55:28;;;;;;;7.68;3.95;;;17.60;86.80;;;;;;5105063;28;20031;-84
2022/06/11 04:57:53;;;;;;;9.60;4.57;;;17.70;87.00;;;;;;5108535;28;20035;-84
2022/06/11 05:00:22;;;;;;;8.75;4.70;;;17.70;87.00;;;;;;5088775;28;20031;-84
2022/06/11 05:02:49;;;;;;;11.15;4.30;;;17.80;86.80;;;;;;5090817;28;20550;-84
2022/06/11 05:05:14;;;;;;;7.90;4.60;;;17.80;86.40;;;;;;5108047;28;20035;-84
2022/06/11 05:07:41;;;;;;;9.05;5.25;;;17.90;86.30;;;;;;5080251;28;20046;-84
2022/06/11 05:10:09;;;;;;;9.75;4.97;;;17.90;86.30;;;;;;5102707;28;20122;-84
2022/06/11 05:12:35;;;;;;;10.23;5.00;;;18.00;86.20;;;;;;5102923;28;20449;-84
2022/06/11 05:15:00;;;;;;;10.30;4.82;;;18.00;86.20;;;;;;5107463;28;20028;-84
2022/06/11 05:17:27;;;;;;;10.70;5.35;;;18.10;86.20;;;;;;5091131;28;20030;-84
2022/06/11 05:19:52;;;;;;;11.60;5.13;;;18.30;85.80;;;;;;5090111;28;20066;-84
2022/06/11 05:22:18;;;;;;;9.55;5.45;;;18.30;85.70;;;;;;5091417;28;20055;-85
2022/06/11 05:24:43;;;;;;;12.73;5.28;;;18.40;84.80;;;;;;5090263;28;20114;-84
2022/06/11 05:27:17;;;;;;;10.80;5.15;;;18.50;84.50;;;;;;5089698;28;20073;-84
2022/06/11 05:29:48;;;;;;;10.35;5.20;;;18.60;84.70;;;;;;5085939;28;20028;-85
2022/06/11 05:32:17;;;;;;;11.13;5.30;;;18.60;84.20;;;;;;5104696;28;20039;-84
2022/06/11 05:34:44;;;;;;;8.98;4.70;;;18.80;83.70;;;;;;5106378;27;20558;-85
2022/06/11 05:37:10;;;;;;;6.57;4.80;;;18.90;83.10;;;;;;5108314;28;20549;-85
2022/06/11 05:39:36;;;;;;;6.97;4.57;;;19.00;82.20;;;;;;5088109;28;21243;-85
2022/06/11 05:42:01;;;;;;;10.10;4.15;;;19.10;82.00;;;;;;5099911;28;20024;-85
2022/06/11 05:44:27;;;;;;;12.77;5.03;;;19.20;81.50;;;;;;5091788;28;20027;-85
2022/06/11 05:46:54;;;;;;;11.43;4.43;;;19.10;82.00;;;;;;5089175;28;20513;-85
2022/06/11 05:49:27;;;;;;;8.63;4.95;;;19.00;81.90;;;;;;5108416;28;21665;-85
2022/06/11 05:51:57;;;;;;;9.90;5.00;;;18.90;82.30;;;;;;5107652;28;20425;-85
2022/06/11 05:54:27;;;;;;;9.67;4.70;;;18.90;82.20;;;;;;5080177;28;20020;-85
2022/06/11 05:56:53;;;;;;;13.30;5.30;;;19.00;82.50;;;;;;5082707;28;20040;-85
2022/06/11 05:59:23;;;;;;;10.77;5.47;;;19.10;82.50;;;;;;5088858;28;20432;-85
2022/06/11 06:01:49;;;;;;;10.90;5.53;;;19.10;81.90;;;;;;5109555;28;20034;-85
2022/06/11 06:04:16;;;;;;;11.38;5.38;;;19.10;81.60;;;;;;5109660;28;20152;-85
2022/06/11 06:06:42;;;;;;;11.15;5.45;;;19.10;81.30;;;;;;5088871;28;20542;-85
2022/06/11 06:09:07;;;;;;;10.68;5.13;;;19.10;81.90;;;;;;5108344;28;20161;-85
2022/06/11 06:11:33;;;;;;;9.02;4.78;;;19.00;81.60;;;;;;5101942;28;20048;-85
2022/06/11 06:13:59;;;;;;;11.90;5.40;;;19.10;81.60;;;;;;5089484;28;20023;-85
2022/06/11 06:16:29;;;;;;;9.00;4.35;;;19.50;81.30;;;;;;5089809;28;20042;-85
2022/06/11 06:18:55;;;;;;;7.82;4.30;;;19.70;80.50;;;;;;5095289;28;20394;-85
2022/06/11 06:21:24;;;;;;;9.10;4.32;;;20.00;79.30;;;;;;5091143;28;20077;-86
2022/06/11 06:23:49;;;;;;;9.93;4.70;;;19.90;78.10;;;;;;5106242;28;20141;-85
2022/06/11 06:26:16;;;;;;;12.20;4.80;;;20.00;79.10;;;;;;5086466;28;20509;-85
2022/06/11 06:28:41;;;;;;;8.00;4.38;;;19.80;78.50;;;;;;5105471;28;20414;-85
2022/06/11 06:31:08;;;;;;;12.85;4.90;;;19.80;78.80;;;;;;5108434;28;20031;-85
2022/06/11 06:33:34;;;;;;;9.55;4.18;;;20.00;78.70;;;;;;5086993;28;20515;-85
2022/06/11 06:36:01;;;;;;;8.48;3.92;;;20.10;78.30;;;;;;5090903;28;20032;-85
2022/06/11 06:38:27;;;;;;;7.55;4.13;;;20.20;78.40;;;;;;5088835;28;20028;-85
2022/06/11 06:40:53;;;;;;;9.63;4.55;;;20.30;78.10;;;;;;5092625;28;20032;-85
2022/06/11 06:43:19;;;;;;;8.60;4.63;;;20.30;78.30;;;;;;5093218;27;20055;-86
2022/06/11 06:45:45;;;;;;;6.72;4.07;;;20.10;78.00;;;;;;5090917;28;20606;-86
2022/06/11 06:48:11;;;;;;;8.70;4.55;;;20.20;78.40;;;;;;5107964;27;20098;-86
2022/06/11 06:50:36;;;;;;;9.88;4.53;;;20.20;78.50;;;;;;5094073;28;20104;-85
2022/06/11 06:53:02;;;;;;;10.02;4.80;;;20.00;78.30;;;;;;5110630;27;20023;-85
2022/06/11 06:55:28;;;;;;;9.95;4.57;;;19.80;78.70;;;;;;5090289;28;20038;-85
2022/06/11 06:57:54;;;;;;;12.38;4.82;;;19.80;79.20;;;;;;5109358;27;20114;-85
2022/06/11 07:00:20;;;;;;;8.52;4.50;;;19.80;79.40;;;;;;5096177;28;20103;-85
2022/06/11 07:02:46;;;;;;;12.10;5.18;;;20.20;78.40;;;;;;5090945;27;20028;-85
2022/06/11 07:05:13;;;;;;;10.73;4.88;;;20.20;78.50;;;;;;5110535;28;20027;-85
2022/06/11 07:07:39;;;;;;;12.70;5.45;;;20.30;77.20;;;;;;5089105;28;20028;-85
2022/06/11 07:10:07;;;;;;;13.32;5.65;;;20.00;78.30;;;;;;5089747;28;20502;-86
2022/06/11 07:12:33;;;;;;;9.70;5.15;;;20.00;78.80;;;;;;5091409;28;20093;-86
2022/06/11 07:14:59;;;;;;;9.80;5.07;;;20.20;78.00;;;;;;5089753;28;20028;-85
2022/06/11 07:17:29;;;;;;;11.23;4.80;;;20.50;78.60;;;;;;5104170;28;20043;-85
2022/06/11 07:20:01;;;;;;;9.67;5.20;;;20.80;77.00;;;;;;5091096;28;20036;-86
2022/06/11 07:22:32;;;;;;;9.40;4.60;;;21.00;77.30;;;;;;5106991;28;20458;-86
2022/06/11 07:24:59;;;;;;;10.88;5.13;;;21.30;76.30;;;;;;5091755;28;20024;-86
2022/06/11 07:27:28;;;;;;;13.10;5.55;;;21.20;75.80;;;;;;5091441;28;20063;-85
2022/06/11 07:30:01;;;;;;;14.38;5.32;;;21.00;75.40;;;;;;5088782;28;20062;-86
2022/06/11 07:32:29;;;;;;;7.63;5.53;;;21.10;74.30;;;;;;5084533;28;20513;-85
2022/06/11 07:34:55;;;;;;;9.32;5.43;;;21.50;75.10;;;;;;5098691;28;20525;-85
2022/06/11 07:37:21;;;;;;;11.77;5.68;;;21.50;72.00;;;;;;5091039;28;20040;-85
2022/06/11 07:39:46;;;;;;;8.38;4.70;;;21.80;71.30;;;;;;5087395;28;20034;-85
2022/06/11 07:42:12;;;;;;;8.48;4.68;;;21.70;70.20;;;;;;5091626;27;20047;-86
2022/06/11 07:44:38;;;;;;;8.13;3.83;;;21.80;70.30;;;;;;5091677;28;20023;-86
2022/06/11 07:47:05;;;;;;;8.35;4.53;;;21.60;69.70;;;;;;5090857;28;20111;-86
2022/06/11 07:49:31;;;;;;;7.13;3.80;;;21.60;68.60;;;;;;5085470;28;20329;-86
2022/06/11 07:51:56;;;;;;;6.57;3.17;;;21.70;68.00;;;;;;5091375;28;20032;-86
2022/06/11 07:54:22;;;;;;;7.32;3.65;;;21.80;67.50;;;;;;5101079;28;20111;-85
2022/06/11 07:56:47;;;;;;;7.80;3.47;;;21.90;66.40;;;;;;5092530;28;20031;-86
2022/06/11 07:59:13;;;;;;;7.63;2.97;;;21.90;66.50;;;;;;5094911;28;20027;-86
2022/06/11 08:01:39;;;;;;;4.72;2.55;;;22.20;67.70;;;;;;5094609;28;20163;-86
2022/06/11 08:04:04;;;;;;;7.15;2.78;;;22.70;64.90;;;;;;5089204;28;20023;-86
2022/06/11 08:06:31;;;;;;;4.32;2.15;;;22.50;66.00;;;;;;5088692;27;20020;-85
2022/06/11 08:08:57;;;;;;;6.15;1.90;;;22.20;64.30;;;;;;5094068;28;20442;-86
2022/06/11 08:11:22;;;;;;;5.30;2.30;;;22.10;63.40;;;;;;5093974;28;20074;-84
2022/06/11 08:13:48;;;;;;;5.70;2.00;;;22.10;63.20;;;;;;5092807;28;20135;-85
2022/06/11 08:16:14;;;;;;;5.43;2.30;;;22.20;62.90;;;;;;5107271;27;20133;-85
2022/06/11 08:18:40;;;;;;;5.72;2.10;;;22.20;62.50;;;;;;5102257;28;20032;-85
2022/06/11 08:21:06;;;;;;;4.60;1.90;;;22.50;63.60;;;;;;5092962;28;20072;-85
2022/06/11 08:23:31;;;;;;;3.30;1.40;;;22.10;61.70;;;;;;5092068;27;20474;-85
2022/06/11 08:25:57;;;;;;;4.78;1.45;;;22.30;59.70;;;;;;5103628;28;20391;-85
2022/06/11 08:28:23;;;;;;;5.60;1.50;;;22.40;58.30;;;;;;5088403;28;20114;-84
2022/06/11 08:30:50;;;;;;;4.15;1.40;;;22.10;59.30;;;;;;5085017;28;20559;-85
2022/06/11 08:33:16;;;;;;;3.83;1.60;;;22.00;57.00;;;;;;5091264;27;20470;-85
2022/06/11 08:35:43;;;;;;;3.47;1.30;;;22.00;57.90;;;;;;5108400;28;20372;-85
2022/06/11 08:38:08;;;;;;;6.88;1.75;;;22.20;57.90;;;;;;5105150;27;20085;-85
2022/06/11 08:40:46;;;;;;;4.85;1.60;;;22.00;57.60;;;;;;5088839;28;20530;-85
2022/06/11 08:43:26;;;;;;;6.03;1.35;;;22.10;58.20;;;;;;5100785;28;20084;-84
2022/06/11 08:46:17;;;;;;;7.38;1.48;;;22.40;59.50;;;;;;5087257;28;20043;-85
2022/06/11 08:48:50;;;;;;;3.88;1.40;;;22.50;59.30;;;;;;5085068;28;20055;-85
2022/06/11 08:51:33;;;;;;;3.92;1.65;;;22.60;57.60;;;;;;5107226;27;20426;-85
2022/06/11 08:54:04;;;;;;;4.72;1.60;;;22.50;55.20;;;;;;5111671;28;20502;-84
2022/06/11 08:56:55;;;;;;;6.35;1.48;;;22.50;56.20;;;;;;5109451;28;20483;-84
2022/06/11 08:59:36;;;;;;;4.15;1.40;;;22.50;58.00;;;;;;5104724;28;20031;-84
2022/06/11 09:02:32;;;;;;;7.18;1.60;;;23.00;56.80;;;;;;5087390;28;20024;-85
2022/06/11 09:05:11;;;;;;;3.20;1.45;;;22.90;54.70;;;;;;5097849;28;20039;-84
2022/06/11 09:07:50;;;;;;;5.20;1.65;;;22.70;54.80;;;;;;5108328;27;20016;-85
2022/06/11 09:10:33;;;;;;;5.45;1.65;;;22.80;55.10;;;;;;5083282;28;20118;-84
2022/06/11 09:13:11;;;;;;;4.78;1.40;;;23.00;53.60;;;;;;5103723;28;20528;-84
2022/06/11 09:16:00;;;;;;;4.20;1.30;;;23.20;54.90;;;;;;5089426;28;20494;-84
2022/06/11 09:18:52;;;;;;;5.75;1.40;;;23.30;51.70;;;;;;5109128;28;20555;-84
2022/06/11 09:21:36;;;;;;;3.20;1.20;;;23.10;53.80;;;;;;5103784;28;20038;-84
2022/06/11 09:24:28;;;;;;;2.25;1.08;;;23.30;52.00;;;;;;5108105;28;20051;-83
2022/06/11 09:27:04;;;;;;;5.40;1.30;;;23.10;51.90;;;;;;5081034;28;20031;-85
2022/06/11 09:29:43;;;;;;;4.20;1.20;;;23.70;51.00;;;;;;5086402;28;20035;-85
2022/06/11 09:32:23;;;;;;;5.32;1.13;;;23.40;48.70;;;;;;5087677;28;20023;-84
2022/06/11 09:34:50;;;;;;;5.22;1.65;;;23.30;49.90;;;;;;5097008;28;20031;-85
2022/06/11 09:37:53;;;;;;;6.30;1.55;;;23.50;49.50;;;;;;5088828;28;20482;-85
2022/06/11 09:40:36;;;;;;;3.60;1.33;;;23.60;50.10;;;;;;5085136;28;20081;-85
2022/06/11 09:43:04;;;;;;;5.30;1.52;;;23.70;49.70;;;;;;5090768;28;20035;-85
2022/06/11 09:45:54;;;;;;;3.88;1.10;;;24.00;48.00;;;;;;5092703;28;20062;-85
2022/06/11 09:48:34;;;;;;;5.13;1.40;;;23.60;46.40;;;;;;5105894;28;20031;-85
2022/06/11 09:51:32;;;;;;;5.63;1.70;;;23.70;46.40;;;;;;5096992;28;20092;-85
2022/06/11 09:54:21;;;;;;;4.68;1.48;;;24.00;46.10;;;;;;5086584;28;20036;-86
2022/06/11 09:57:09;;;;;;;4.82;1.13;;;23.80;45.40;;;;;;5105605;28;20382;-85
2022/06/11 09:59:41;;;;;;;4.72;1.15;;;23.70;45.90;;;;;;5107736;28;20077;-85
2022/06/11 10:02:07;;;;;;;6.60;1.83;;;23.60;45.20;;;;;;5088443;28;20488;-85
2022/06/11 10:04:40;;;;;;;4.03;1.35;;;23.70;46.10;;;;;;5090637;28;20114;-85
2022/06/11 10:07:13;;;;;;;3.53;1.58;;;24.30;47.30;;;;;;5086763;28;20387;-86
2022/06/11 10:09:53;;;;;;;5.10;1.38;;;24.30;44.30;;;;;;5102286;28;20513;-85
2022/06/11 10:12:28;;;;;;;4.77;1.10;;;24.40;43.80;;;;;;5087772;28;20060;-86
2022/06/11 10:15:09;;;;;;;3.95;1.10;;;24.00;42.80;;;;;;5091559;28;20502;-86
2022/06/11 10:17:46;;;;;;;6.30;1.73;;;24.50;43.20;;;;;;5107183;28;20027;-86
2022/06/11 10:20:26;;;;;;;12.23;2.72;;;24.10;45.70;;;;;;5100535;27;20032;-86
2022/06/11 10:23:04;;;;;;;4.32;1.10;;;24.00;45.90;;;;;;5089200;27;20031;-87
2022/06/11 10:25:44;;;;;;;6.03;1.85;;;24.20;42.80;;;;;;5087984;28;20317;-87
2022/06/11 10:28:18;;;;;;;9.02;2.65;;;24.40;43.20;;;;;;5089297;28;20028;-86
2022/06/11 10:31:12;;;;;;;4.75;1.35;;;24.40;44.30;;;;;;5089352;28;20027;-86
2022/06/11 10:34:12;;;;;;;13.15;3.05;;;24.70;44.30;;;;;;5090774;27;20500;-87
2022/06/11 10:36:47;;;;;;;11.07;2.70;;;24.50;40.00;;;;;;5109902;27;20102;-87
2022/06/11 10:39:26;;;;;;;4.50;1.60;;;24.60;42.00;;;;;;5091406;28;20033;-87
2022/06/11 10:42:04;;;;;;;7.55;2.20;;;24.90;40.80;;;;;;5101792;27;20640;-87
2022/06/11 10:44:38;;;;;;;5.72;1.70;;;24.50;42.70;;;;;;5086285;28;20110;-86
2022/06/11 10:47:24;;;;;;;6.55;1.77;;;25.20;42.50;;;;;;5106533;28;20028;-87
2022/06/11 10:50:09;;;;;;;9.05;2.10;;;25.20;41.50;;;;;;5103595;27;20035;-87
2022/06/11 10:52:55;;;;;;;8.32;1.88;;;24.90;43.00;;;;;;5103004;28;20383;-87
2022/06/11 10:55:49;;;;;;;5.70;1.90;;;25.00;42.90;;;;;;5101469;28;20500;-86
2022/06/11 10:58:37;;;;;;;7.78;1.77;;;25.00;43.80;;;;;;5104185;28;20028;-87
2022/06/11 11:01:09;;;;;;;4.95;1.25;;;25.10;43.10;;;;;;5089968;27;20051;-87
2022/06/11 11:03:42;;;;;;;7.75;1.70;;;25.10;39.60;;;;;;5090020;28;20153;-87
2022/06/11 11:06:16;;;;;;;5.68;1.70;;;25.00;42.50;;;;;;5107547;27;20028;-87
2022/06/11 11:08:54;;;;;;;5.53;1.50;;;24.60;43.30;;;;;;5088155;28;20630;-87
2022/06/11 11:11:20;;;;;;;8.63;1.98;;;25.40;44.20;;;;;;5090847;28;20073;-88
2022/06/11 11:13:48;;;;;;;9.13;2.10;;;25.60;44.10;;;;;;5089990;27;20027;-87
2022/06/11 11:16:15;;;;;;;7.50;1.60;;;25.20;42.00;;;;;;5081716;28;20027;-87
2022/06/11 11:18:59;;;;;;;6.38;2.25;;;25.20;43.10;;;;;;5092110;28;20046;-86
2022/06/11 11:21:35;;;;;;;7.45;1.90;;;25.60;43.90;;;;;;5103203;28;20032;-86
2022/06/11 11:24:07;;;;;;;7.53;1.80;;;25.90;44.00;;;;;;5091211;28;20479;-87
2022/06/11 11:26:39;;;;;;;6.97;2.10;;;26.30;42.10;;;;;;5102054;28;20055;-86
2022/06/11 11:29:12;;;;;;;8.07;1.83;;;26.30;41.10;;;;;;5089222;28;20376;-86
2022/06/11 11:31:58;;;;;;;6.75;2.00;;;26.10;42.70;;;;;;5105154;27;20494;-86
2022/06/11 11:34:28;;;;;;;4.65;1.65;;;26.00;38.90;;;;;;5089361;28;20046;-86
2022/06/11 11:37:20;;;;;;;8.52;1.95;;;26.20;41.30;;;;;;5091481;28;20089;-86
2022/06/11 11:39:55;;;;;;;5.28;1.65;;;25.70;40.60;;;;;;5109319;28;20030;-86
2022/06/11 11:42:40;;;;;;;5.55;1.70;;;26.30;40.20;;;;;;5107118;27;20031;-86
2022/06/11 11:45:24;;;;;;;5.55;1.65;;;26.20;38.70;;;;;;5091769;28;20031;-86
2022/06/11 11:47:54;;;;;;;5.32;1.63;;;26.00;39.70;;;;;;5093942;27;20027;-87
2022/06/11 11:50:34;;;;;;;5.47;1.48;;;26.40;39.20;;;;;;5093602;28;20386;-86
2022/06/11 11:53:12;;;;;;;5.80;1.80;;;26.20;39.10;;;;;;5088903;28;20028;-86
2022/06/11 11:55:42;;;;;;;8.00;1.92;;;26.10;39.20;;;;;;5110080;28;20364;-87
2022/06/11 11:58:17;;;;;;;5.40;1.50;;;26.30;38.10;;;;;;5082924;28;20206;-87
2022/06/11 12:00:53;;;;;;;5.38;1.23;;;26.20;38.50;;;;;;5091359;28;20478;-87
2022/06/11 12:03:40;;;;;;;5.88;1.48;;;26.10;39.70;;;;;;5092506;28;20050;-87
2022/06/11 12:06:10;;;;;;;5.53;1.63;;;26.20;38.80;;;;;;5111384;27;20490;-87
2022/06/11 12:08:47;;;;;;;6.13;2.03;;;26.40;38.80;;;;;;5109037;28;20114;-87
2022/06/11 12:11:28;;;;;;;6.22;1.52;;;26.40;40.30;;;;;;5105028;28;20118;-86
2022/06/11 12:14:00;;;;;;;8.75;1.83;;;26.60;39.90;;;;;;5093040;28;20557;-87
2022/06/11 12:16:29;;;;;;;6.93;1.73;;;26.90;40.70;;;;;;5107113;27;20398;-87
2022/06/11 12:19:09;;;;;;;6.15;1.65;;;27.30;38.80;;;;;;5094056;28;20479;-87
2022/06/11 12:21:40;;;;;;;6.10;1.38;;;27.00;38.10;;;;;;5084418;27;20031;-87
2022/06/11 12:24:16;;;;;;;6.63;1.88;;;27.40;37.50;;;;;;5086220;28;20582;-86
2022/06/11 12:26:46;;;;;;;8.52;1.98;;;27.50;38.20;;;;;;5103789;28;20058;-86
2022/06/11 12:29:33;;;;;;;6.45;2.05;;;27.30;38.70;;;;;;5103358;28;20039;-87
2022/06/11 12:32:01;;;;;;;8.63;1.80;;;26.80;40.40;;;;;;5093794;28;20064;-87
2022/06/11 12:34:30;;;;;;;5.80;1.70;;;26.70;38.90;;;;;;5088462;28;20494;-86
2022/06/11 12:37:17;;;;;;;5.43;1.63;;;25.90;40.40;;;;;;5105564;27;20020;-86
2022/06/11 12:39:59;;;;;;;10.30;1.98;;;25.80;41.10;;;;;;5111709;27;20478;-86
2022/06/11 12:43:09;;;;;;;6.03;1.63;;;26.20;39.90;;;;;;5091222;28;20028;-87
2022/06/11 12:45:56;;;;;;;4.90;1.30;;;25.00;40.90;;;;;;5090929;28;20035;-86
2022/06/11 12:48:34;;;;;;;6.22;1.70;;;25.80;39.80;;;;;;5110998;27;20118;-86
2022/06/11 12:51:22;;;;;;;6.88;1.67;;;25.70;40.10;;;;;;5109300;28;20058;-86
2022/06/11 12:54:08;;;;;;;7.18;1.90;;;26.20;38.40;;;;;;5089941;28;20031;-86
2022/06/11 12:57:05;;;;;;;7.97;1.60;;;26.40;38.60;;;;;;5109808;27;20030;-86
2022/06/11 13:00:14;;;;;;;6.82;1.58;;;25.70;39.90;;;;;;5093478;28;20038;-86
2022/06/11 13:03:11;;;;;;;8.30;1.92;;;26.10;39.10;;;;;;5088240;28;20024;-87
2022/06/11 13:05:58;;;;;;;5.13;1.67;;;26.40;39.10;;;;;;5107996;27;20023;-86
2022/06/11 13:08:48;;;;;;;7.20;1.70;;;25.40;40.00;;;;;;5090487;28;20027;-86
2022/06/11 13:11:51;;;;;;;2.55;1.13;;;25.20;40.00;;;;;;5086817;28;20085;-87
2022/06/11 13:14:29;;;;;;;5.15;1.48;;;26.00;40.00;;;;;;5101075;28;20126;-87
2022/06/11 13:17:13;;;;;;;5.05;1.50;;;26.50;38.70;;;;;;5088980;28;20036;-86